Time;durP1;ratioP1;P1;durP2;ratioP2;P2;SDS_P1;SDS_P2;PMS_P1;PMS_P2;Temp;Humidity;BMP_temperature;BMP_pressure;BME280_temperature;BME280_humidity;BME280_pressure;Samples;Min_cycle;Max_cycle;Signal;HPM_P1;HPM_P2
2021/07/21 00:00:39;;;;;;;6.18;3.63;;;;;22.60;102128.00;;;;5078529;28;20225;-76
2021/07/21 00:03:08;;;;;;;6.05;3.63;;;;;22.60;102128.00;;;;5072511;28;20292;-77
2021/07/21 00:05:37;;;;;;;5.82;3.83;;;;;22.60;102135.00;;;;5071384;28;20199;-76
2021/07/21 00:08:05;;;;;;;5.50;3.28;;;;;22.60;102127.00;;;;5088941;28;20190;-76
2021/07/21 00:10:33;;;;;;;6.00;3.97;;;;;22.60;102132.00;;;;5090299;28;20201;-76
2021/07/21 00:15:54;;;;;;;6.55;3.95;;;;;22.50;102120.00;;;;5070814;28;20287;-76
2021/07/21 00:18:26;;;;;;;6.13;4.50;;;;;22.40;102122.00;;;;5072177;28;20273;-77
2021/07/21 00:20:54;;;;;;;5.57;3.55;;;;;22.40;102121.00;;;;5091268;28;20201;-76
2021/07/21 00:23:21;;;;;;;5.55;3.78;;;;;22.40;102130.00;;;;5087571;28;20221;-76
2021/07/21 00:25:49;;;;;;;4.53;3.42;;;;;22.40;102125.00;;;;5069533;28;20261;-76
2021/07/21 00:28:17;;;;;;;5.85;3.58;;;;;22.40;102133.00;;;;5083364;28;20202;-76
2021/07/21 00:30:45;;;;;;;5.20;3.92;;;;;22.40;102130.00;;;;5080805;28;20202;-76
2021/07/21 00:33:12;;;;;;;4.72;3.97;;;;;22.30;102128.00;;;;5090483;28;20202;-76
2021/07/21 00:35:41;;;;;;;5.03;3.95;;;;;22.30;102122.00;;;;5087904;28;20233;-76
2021/07/21 00:38:08;;;;;;;5.38;3.63;;;;;22.30;102119.00;;;;5074963;28;20202;-76
2021/07/21 00:40:35;;;;;;;4.82;3.35;;;;;22.30;102125.00;;;;5102872;28;20187;-76
2021/07/21 00:43:03;;;;;;;4.68;3.25;;;;;22.20;102121.00;;;;5070641;28;20230;-76
2021/07/21 00:45:30;;;;;;;5.63;3.83;;;;;22.20;102126.00;;;;5076667;28;20195;-76
2021/07/21 00:47:58;;;;;;;5.55;4.15;;;;;22.20;102116.00;;;;5069132;28;20203;-76
2021/07/21 00:50:25;;;;;;;4.32;3.67;;;;;22.20;102118.00;;;;5070532;28;20202;-76
2021/07/21 00:52:54;;;;;;;6.57;4.00;;;;;22.20;102110.00;;;;5070269;28;20658;-76
2021/07/21 00:55:22;;;;;;;5.85;3.72;;;;;22.10;102114.00;;;;5069856;28;20191;-76
2021/07/21 00:57:49;;;;;;;5.15;3.60;;;;;22.10;102108.00;;;;5069914;28;20191;-76
2021/07/21 01:00:18;;;;;;;4.03;3.03;;;;;22.10;102111.00;;;;5076061;28;20664;-76
2021/07/21 01:02:47;;;;;;;6.25;3.20;;;;;22.10;102112.00;;;;5081256;28;20224;-76
2021/07/21 01:05:17;;;;;;;4.85;3.28;;;;;22.00;102114.00;;;;5089163;28;20198;-76
2021/07/21 01:07:46;;;;;;;4.95;3.72;;;;;22.00;102116.00;;;;5071763;28;20664;-76
2021/07/21 01:10:17;;;;;;;5.80;3.42;;;;;22.00;102115.00;;;;5070270;28;20203;-76
2021/07/21 01:12:50;;;;;;;6.72;3.92;;;;;22.00;102113.00;;;;5069032;28;20278;-76
2021/07/21 01:15:19;;;;;;;6.30;3.63;;;;;22.00;102114.00;;;;5069301;28;20210;-76
2021/07/21 01:17:51;;;;;;;5.72;3.50;;;;;21.90;102116.00;;;;5070238;28;20276;-76
2021/07/21 01:20:45;;;;;;;5.88;3.53;;;;;21.80;102120.00;;;;5084343;28;20275;-76
2021/07/21 01:23:22;;;;;;;4.43;3.33;;;;;21.90;102116.00;;;;5069452;28;20541;-76
2021/07/21 01:25:57;;;;;;;3.97;3.30;;;;;21.80;102118.00;;;;5087215;28;20198;-76
2021/07/21 01:28:29;;;;;;;4.55;2.88;;;;;21.80;102119.00;;;;5090214;28;20190;-76
2021/07/21 01:30:59;;;;;;;4.63;3.03;;;;;21.80;102126.00;;;;5083338;28;20197;-76
2021/07/21 01:33:28;;;;;;;5.43;3.72;;;;;21.80;102125.00;;;;5088105;28;20206;-76
2021/07/21 01:36:00;;;;;;;3.75;3.00;;;;;21.70;102114.00;;;;5068404;28;20226;-76
2021/07/21 01:38:32;;;;;;;4.13;3.28;;;;;21.70;102118.00;;;;5069318;28;20195;-76
2021/07/21 01:41:04;;;;;;;5.57;3.33;;;;;21.70;102119.00;;;;5068427;28;20203;-76
2021/07/21 01:43:34;;;;;;;5.00;3.22;;;;;21.70;102120.00;;;;5069132;28;20219;-77
2021/07/21 01:46:03;;;;;;;5.00;3.42;;;;;21.70;102120.00;;;;5080503;28;20191;-76
2021/07/21 01:48:36;;;;;;;4.43;3.17;;;;;21.70;102121.00;;;;5087227;28;20186;-76
2021/07/21 01:51:05;;;;;;;5.40;3.90;;;;;21.70;102118.00;;;;5080243;28;20193;-76
2021/07/21 01:53:34;;;;;;;4.25;3.20;;;;;21.60;102117.00;;;;5074853;28;20187;-76
2021/07/21 01:56:03;;;;;;;4.72;3.58;;;;;21.60;102121.00;;;;5068753;28;20198;-76
2021/07/21 01:58:32;;;;;;;5.90;3.13;;;;;21.60;102118.00;;;;5068542;28;20195;-77
2021/07/21 02:01:00;;;;;;;5.20;3.50;;;;;21.60;102115.00;;;;5068607;28;20210;-77
2021/07/21 02:03:29;;;;;;;7.75;3.97;;;;;21.50;102112.00;;;;5084778;28;20229;-77
2021/07/21 02:06:06;;;;;;;4.90;3.28;;;;;21.50;102125.00;;;;5081589;28;20195;-76
2021/07/21 02:08:34;;;;;;;5.30;3.70;;;;;21.50;102125.00;;;;5081101;28;20669;-77
2021/07/21 02:11:03;;;;;;;4.78;3.90;;;;;21.50;102120.00;;;;5068528;28;20207;-77
2021/07/21 02:13:33;;;;;;;6.93;3.88;;;;;21.50;102121.00;;;;5068624;28;20206;-77
2021/07/21 02:16:02;;;;;;;8.18;4.68;;;;;21.50;102122.00;;;;5067872;28;20222;-77
2021/07/21 02:18:30;;;;;;;8.43;3.90;;;;;21.50;102126.00;;;;5078038;28;20210;-77
2021/07/21 02:21:01;;;;;;;5.68;4.22;;;;;21.50;102127.00;;;;5086426;28;20571;-77
2021/07/21 02:23:29;;;;;;;7.72;5.10;;;;;21.50;102121.00;;;;5083103;28;20210;-77
2021/07/21 02:26:00;;;;;;;6.15;4.55;;;;;21.40;102116.00;;;;5087342;28;20221;-76
2021/07/21 02:28:29;;;;;;;6.97;4.15;;;;;21.50;102117.00;;;;5082174;28;20206;-76
2021/07/21 02:31:02;;;;;;;7.93;5.05;;;;;21.40;102115.00;;;;5068046;28;20191;-77
2021/07/21 02:33:36;;;;;;;9.18;5.07;;;;;21.50;102116.00;;;;5081993;28;20194;-77
2021/07/21 02:36:05;;;;;;;8.50;5.32;;;;;21.50;102117.00;;;;5067495;28;20248;-77
2021/07/21 02:38:32;;;;;;;8.50;4.93;;;;;21.50;102119.00;;;;5067698;28;20203;-77
2021/07/21 02:40:59;;;;;;;7.70;4.90;;;;;21.50;102119.00;;;;5069306;28;21994;-76
2021/07/21 02:43:27;;;;;;;6.18;4.38;;;;;21.50;102116.00;;;;5082272;28;20219;-77
2021/07/21 02:45:55;;;;;;;7.15;4.43;;;;;21.50;102120.00;;;;5081529;28;20248;-76
2021/07/21 02:48:23;;;;;;;5.82;4.63;;;;;21.50;102126.00;;;;5084784;28;20194;-76
2021/07/21 02:50:58;;;;;;;6.63;4.85;;;;;21.40;102127.00;;;;5067817;28;20195;-76
2021/07/21 02:53:33;;;;;;;5.93;4.05;;;;;21.40;102116.00;;;;5068307;28;20194;-76
2021/07/21 02:56:06;;;;;;;5.93;3.70;;;;;21.40;102117.00;;;;5067862;28;20201;-76
2021/07/21 02:58:40;;;;;;;6.82;4.57;;;;;21.40;102129.00;;;;5068476;28;20313;-76
2021/07/21 03:01:08;;;;;;;6.32;4.03;;;;;21.40;102129.00;;;;5068247;28;20214;-77
2021/07/21 03:03:38;;;;;;;7.25;4.10;;;;;21.40;102120.00;;;;5086590;28;20226;-76
2021/07/21 03:06:07;;;;;;;6.32;3.45;;;;;21.40;102115.00;;;;5084695;28;20195;-74
2021/07/21 03:08:35;;;;;;;8.68;5.03;;;;;21.40;102120.00;;;;5067727;28;20194;-74
2021/07/21 03:11:04;;;;;;;6.72;4.72;;;;;21.40;102129.00;;;;5077616;28;20252;-74
2021/07/21 03:13:36;;;;;;;6.53;4.63;;;;;21.40;102131.00;;;;5095058;28;20191;-74
2021/07/21 03:16:05;;;;;;;6.57;4.32;;;;;21.40;102129.00;;;;5067682;28;20211;-74
2021/07/21 03:18:33;;;;;;;6.53;3.90;;;;;21.40;102131.00;;;;5079534;28;20205;-74
2021/07/21 03:21:04;;;;;;;6.50;4.55;;;;;21.30;102136.00;;;;5079982;28;20199;-74
2021/07/21 03:23:31;;;;;;;10.10;4.57;;;;;21.30;102132.00;;;;5067823;28;20711;-75
2021/07/21 03:26:05;;;;;;;5.97;4.53;;;;;21.30;102136.00;;;;5066778;28;20208;-75
2021/07/21 03:28:33;;;;;;;6.03;4.25;;;;;21.30;102129.00;;;;5069697;28;20277;-75
2021/07/21 03:31:01;;;;;;;7.63;4.38;;;;;21.30;102140.00;;;;5067541;28;20217;-75
2021/07/21 03:33:30;;;;;;;7.78;4.70;;;;;21.30;102133.00;;;;5068007;28;20206;-75
2021/07/21 03:36:04;;;;;;;6.50;4.60;;;;;21.20;102141.00;;;;5067136;28;20222;-75
2021/07/21 03:38:32;;;;;;;7.32;3.95;;;;;21.30;102142.00;;;;5074217;28;20209;-75
2021/07/21 03:41:00;;;;;;;5.68;3.70;;;;;21.30;102142.00;;;;5075658;28;20199;-75
2021/07/21 03:43:29;;;;;;;7.18;4.85;;;;;21.30;102142.00;;;;5066965;28;20233;-75
2021/07/21 03:46:00;;;;;;;6.97;4.50;;;;;21.20;102136.00;;;;5080687;28;20201;-76
2021/07/21 03:48:28;;;;;;;7.38;4.40;;;;;21.20;102140.00;;;;5087885;28;20202;-76
2021/07/21 03:50:57;;;;;;;6.35;3.70;;;;;21.20;102131.00;;;;5076664;28;20207;-76
2021/07/21 03:53:28;;;;;;;7.20;4.28;;;;;21.10;102132.00;;;;5067685;28;20191;-75
2021/07/21 03:55:57;;;;;;;6.13;4.60;;;;;21.10;102136.00;;;;5067205;28;20191;-76
2021/07/21 03:58:24;;;;;;;7.40;4.20;;;;;21.10;102139.00;;;;5091903;28;20229;-76
2021/07/21 04:00:54;;;;;;;6.63;3.85;;;;;21.10;102142.00;;;;5092274;28;20199;-75
2021/07/21 04:03:24;;;;;;;8.18;5.25;;;;;21.10;102137.00;;;;5099400;28;20245;-76
2021/07/21 04:05:53;;;;;;;7.00;4.13;;;;;21.10;102130.00;;;;5084858;28;20256;-75
2021/07/21 04:08:21;;;;;;;7.05;4.85;;;;;21.10;102141.00;;;;5071749;28;20203;-76
2021/07/21 04:10:52;;;;;;;5.32;3.83;;;;;21.00;102137.00;;;;5073158;28;20195;-75
2021/07/21 04:13:20;;;;;;;8.02;4.35;;;;;21.00;102136.00;;;;5070203;28;20598;-75
2021/07/21 04:15:48;;;;;;;6.43;4.20;;;;;21.00;102141.00;;;;5075091;28;20637;-75
2021/07/21 04:18:16;;;;;;;7.47;5.05;;;;;21.00;102144.00;;;;5078364;28;20671;-76
2021/07/21 04:20:44;;;;;;;8.45;4.75;;;;;21.00;102148.00;;;;5088387;28;20197;-76
2021/07/21 04:23:12;;;;;;;6.82;4.50;;;;;21.00;102154.00;;;;5085904;28;20233;-76
2021/07/21 04:25:40;;;;;;;6.90;4.57;;;;;21.00;102149.00;;;;5086755;28;20256;-76
2021/07/21 04:28:10;;;;;;;6.35;4.43;;;;;21.00;102150.00;;;;5091643;28;20987;-75
2021/07/21 04:30:38;;;;;;;5.57;4.28;;;;;21.00;102151.00;;;;5089953;28;21141;-76
2021/07/21 04:33:06;;;;;;;7.18;4.45;;;;;21.00;102149.00;;;;5073523;28;20192;-76
2021/07/21 04:35:33;;;;;;;6.03;4.32;;;;;21.00;102148.00;;;;5086733;28;20226;-75
2021/07/21 04:38:01;;;;;;;8.65;5.25;;;;;21.00;102147.00;;;;5089696;28;20213;-75
2021/07/21 04:40:29;;;;;;;6.53;4.22;;;;;21.00;102160.00;;;;5078523;28;20198;-76
2021/07/21 04:42:57;;;;;;;6.57;4.75;;;;;21.10;102164.00;;;;5079134;28;20682;-76
2021/07/21 04:45:25;;;;;;;6.43;4.40;;;;;21.10;102164.00;;;;5090063;28;20716;-76
2021/07/21 04:47:53;;;;;;;7.22;5.03;;;;;21.10;102159.00;;;;5088534;28;20194;-76
2021/07/21 04:50:24;;;;;;;7.75;4.57;;;;;21.10;102160.00;;;;5085089;28;20195;-76
2021/07/21 04:52:51;;;;;;;6.22;4.18;;;;;21.20;102174.00;;;;5086546;28;20234;-76
2021/07/21 04:55:19;;;;;;;6.38;4.30;;;;;21.20;102170.00;;;;5081492;28;20193;-76
2021/07/21 04:57:48;;;;;;;7.13;4.35;;;;;21.20;102178.00;;;;5087122;28;20205;-76
2021/07/21 05:00:16;;;;;;;6.15;4.43;;;;;21.20;102176.00;;;;5085500;28;20272;-76
2021/07/21 05:02:45;;;;;;;7.32;4.32;;;;;21.30;102174.00;;;;5079465;28;20824;-76
2021/07/21 05:05:13;;;;;;;5.88;4.28;;;;;21.30;102174.00;;;;5084842;28;20190;-76
2021/07/21 05:07:40;;;;;;;5.97;4.70;;;;;21.40;102176.00;;;;5087405;28;20226;-76
2021/07/21 05:10:08;;;;;;;8.18;4.72;;;;;21.40;102178.00;;;;5084302;28;20202;-76
2021/07/21 05:12:35;;;;;;;6.05;4.38;;;;;21.40;102180.00;;;;5084602;28;20605;-76
2021/07/21 05:15:03;;;;;;;5.78;4.13;;;;;21.50;102182.00;;;;5078148;28;20696;-76
2021/07/21 05:17:30;;;;;;;6.90;4.70;;;;;21.50;102181.00;;;;5086808;28;20210;-75
2021/07/21 05:19:58;;;;;;;5.90;3.78;;;;;21.50;102190.00;;;;5084326;28;20202;-76
2021/07/21 05:22:26;;;;;;;6.55;4.55;;;;;21.60;102183.00;;;;5092351;28;20206;-76
2021/07/21 05:24:53;;;;;;;5.90;4.35;;;;;21.60;102192.00;;;;5084250;28;20228;-76
2021/07/21 05:27:20;;;;;;;6.13;3.88;;;;;21.60;102191.00;;;;5083632;28;20186;-76
2021/07/21 05:29:47;;;;;;;8.73;4.63;;;;;21.60;102191.00;;;;5085353;28;20198;-76
2021/07/21 05:32:14;;;;;;;6.47;4.22;;;;;21.70;102201.00;;;;5089406;28;20214;-76
2021/07/21 05:34:42;;;;;;;6.80;4.20;;;;;21.70;102194.00;;;;5074581;28;20207;-76
2021/07/21 05:37:10;;;;;;;6.40;4.60;;;;;21.70;102202.00;;;;5069674;28;20223;-76
2021/07/21 05:39:38;;;;;;;6.50;3.70;;;;;21.80;102194.00;;;;5070427;28;20244;-76
2021/07/21 05:42:05;;;;;;;4.97;3.72;;;;;21.80;102203.00;;;;5071336;28;20190;-76
2021/07/21 05:44:33;;;;;;;5.60;4.45;;;;;21.80;102198.00;;;;5080871;28;20245;-77
2021/07/21 05:47:00;;;;;;;5.68;4.32;;;;;21.90;102199.00;;;;5068395;28;20513;-76
2021/07/21 05:49:27;;;;;;;4.63;4.18;;;;;21.90;102201.00;;;;5074701;28;20202;-76
2021/07/21 05:51:55;;;;;;;7.40;4.13;;;;;22.00;102210.00;;;;5100738;28;20206;-76
2021/07/21 05:54:23;;;;;;;6.50;4.80;;;;;22.00;102211.00;;;;5085116;28;20187;-75
2021/07/21 05:56:51;;;;;;;5.60;4.28;;;;;22.10;102210.00;;;;5081521;28;20212;-76
2021/07/21 05:59:18;;;;;;;9.30;4.68;;;;;22.10;102212.00;;;;5088011;28;20225;-77
2021/07/21 06:01:45;;;;;;;7.25;4.15;;;;;22.10;102208.00;;;;5085044;28;20680;-76
2021/07/21 06:04:12;;;;;;;7.35;4.10;;;;;22.20;102218.00;;;;5079707;28;20222;-76
2021/07/21 06:06:40;;;;;;;7.15;4.25;;;;;22.20;102214.00;;;;5072169;28;20194;-76
2021/07/21 06:09:07;;;;;;;6.00;4.32;;;;;22.30;102212.00;;;;5069005;28;20211;-77
2021/07/21 06:11:35;;;;;;;8.10;4.22;;;;;22.30;102218.00;;;;5071305;28;20579;-77
2021/07/21 06:14:03;;;;;;;7.63;4.30;;;;;22.40;102215.00;;;;5089209;28;20831;-77
2021/07/21 06:16:30;;;;;;;7.85;4.55;;;;;22.50;102222.00;;;;5083440;28;20211;-76
2021/07/21 06:18:58;;;;;;;8.40;4.35;;;;;22.50;102230.00;;;;5068272;28;20233;-77
2021/07/21 06:21:26;;;;;;;6.82;4.78;;;;;22.60;102225.00;;;;5069149;28;20195;-77
2021/07/21 06:23:53;;;;;;;7.20;4.63;;;;;22.70;102226.00;;;;5069652;28;20233;-76
2021/07/21 06:26:20;;;;;;;8.02;5.18;;;;;22.70;102232.00;;;;5069527;28;20194;-77
2021/07/21 06:28:49;;;;;;;5.68;4.32;;;;;22.80;102233.00;;;;5085441;28;20194;-76
2021/07/21 06:31:17;;;;;;;7.38;4.50;;;;;22.90;102241.00;;;;5068933;28;20206;-76
2021/07/21 06:33:44;;;;;;;6.03;4.45;;;;;22.90;102241.00;;;;5070333;28;20233;-77
2021/07/21 06:36:12;;;;;;;7.05;4.60;;;;;23.00;102242.00;;;;5092019;28;20252;-77
2021/07/21 06:38:39;;;;;;;7.53;4.88;;;;;23.10;102237.00;;;;5109286;28;20274;-76
2021/07/21 06:41:07;;;;;;;8.55;5.35;;;;;23.10;102240.00;;;;5088615;28;20822;-77
2021/07/21 06:43:34;;;;;;;6.75;4.68;;;;;23.20;102240.00;;;;5082577;28;20230;-77
2021/07/21 06:46:03;;;;;;;8.48;5.57;;;;;23.30;102245.00;;;;5074867;28;20206;-76
2021/07/21 06:48:30;;;;;;;8.05;5.38;;;;;23.40;102243.00;;;;5073563;28;20198;-76
2021/07/21 06:50:57;;;;;;;11.30;5.60;;;;;23.40;102251.00;;;;5073460;28;20205;-75
2021/07/21 06:53:25;;;;;;;8.45;6.15;;;;;23.50;102246.00;;;;5088663;28;20546;-75
2021/07/21 06:55:52;;;;;;;9.27;7.28;;;;;23.60;102255.00;;;;5083162;28;20198;-75
2021/07/21 06:58:19;;;;;;;8.73;6.38;;;;;23.70;102259.00;;;;5077412;28;20206;-75
2021/07/21 07:00:46;;;;;;;8.90;6.13;;;;;23.80;102262.00;;;;5070923;28;20695;-76
2021/07/21 07:03:15;;;;;;;7.82;4.82;;;;;24.00;102259.00;;;;5067619;28;20202;-76
2021/07/21 07:05:42;;;;;;;9.65;5.68;;;;;24.10;102261.00;;;;5067052;28;20566;-76
2021/07/21 07:08:10;;;;;;;9.23;5.30;;;;;24.20;102260.00;;;;5067879;28;20211;-76
2021/07/21 07:10:37;;;;;;;7.88;5.43;;;;;24.30;102264.00;;;;5067697;28;20210;-76
2021/07/21 07:13:05;;;;;;;8.75;5.68;;;;;24.50;102270.00;;;;5067873;28;20673;-76
2021/07/21 07:15:32;;;;;;;6.78;5.38;;;;;24.60;102262.00;;;;5071185;28;20202;-75
2021/07/21 07:18:00;;;;;;;7.22;5.22;;;;;24.70;102271.00;;;;5067550;28;20277;-76
2021/07/21 07:20:28;;;;;;;7.90;4.93;;;;;24.80;102270.00;;;;5074892;28;20210;-76
2021/07/21 07:22:56;;;;;;;6.25;4.63;;;;;24.90;102272.00;;;;5071376;28;20195;-76
2021/07/21 07:25:23;;;;;;;8.60;5.68;;;;;25.00;102279.00;;;;5067814;28;20225;-76
2021/07/21 07:27:50;;;;;;;7.35;5.38;;;;;25.20;102277.00;;;;5073557;28;20255;-76
2021/07/21 07:30:18;;;;;;;7.72;5.68;;;;;25.30;102277.00;;;;5072767;28;20195;-76
2021/07/21 07:32:45;;;;;;;7.03;5.28;;;;;25.40;102277.00;;;;5068939;28;20195;-75
2021/07/21 07:35:12;;;;;;;6.95;5.40;;;;;25.50;102274.00;;;;5072587;28;20203;-76
2021/07/21 07:37:41;;;;;;;7.72;4.82;;;;;25.60;102279.00;;;;5072384;28;20257;-76
2021/07/21 07:40:09;;;;;;;7.43;5.00;;;;;25.80;102281.00;;;;5077855;28;20199;-77
2021/07/21 07:42:37;;;;;;;7.03;4.93;;;;;25.80;102278.00;;;;5071697;28;20217;-76
2021/07/21 07:45:05;;;;;;;6.18;4.75;;;;;25.90;102280.00;;;;5087216;28;20290;-77
2021/07/21 07:47:33;;;;;;;5.93;4.15;;;;;26.00;102282.00;;;;5074356;28;20199;-76
2021/07/21 07:50:00;;;;;;;7.03;4.88;;;;;26.20;102278.00;;;;5070047;28;20218;-76
2021/07/21 07:52:28;;;;;;;6.80;4.63;;;;;26.30;102273.00;;;;5071839;28;20199;-76
2021/07/21 07:54:59;;;;;;;8.40;4.57;;;;;26.40;102288.00;;;;5070962;28;20578;-75
2021/07/21 07:57:26;;;;;;;6.57;5.10;;;;;26.50;102291.00;;;;5069798;28;20214;-75
2021/07/21 07:59:53;;;;;;;5.18;4.05;;;;;26.60;102288.00;;;;5078328;28;20276;-75
2021/07/21 08:02:21;;;;;;;5.13;4.10;;;;;26.70;102288.00;;;;5073594;28;20233;-75
2021/07/21 08:04:48;;;;;;;6.22;4.32;;;;;26.90;102283.00;;;;5071222;28;20230;-76
2021/07/21 08:07:15;;;;;;;5.60;3.95;;;;;27.00;102282.00;;;;5077306;28;20212;-76
2021/07/21 08:09:42;;;;;;;4.88;3.53;;;;;27.10;102283.00;;;;5080906;28;20202;-75
2021/07/21 08:12:11;;;;;;;4.78;3.92;;;;;27.20;102295.00;;;;5074829;28;20206;-76
2021/07/21 08:14:39;;;;;;;5.72;4.13;;;;;27.30;102290.00;;;;5083355;28;20199;-76
2021/07/21 08:17:06;;;;;;;4.68;3.53;;;;;27.40;102286.00;;;;5079459;28;20210;-77
2021/07/21 08:19:33;;;;;;;5.65;3.70;;;;;27.50;102285.00;;;;5087060;28;20186;-75
2021/07/21 08:22:01;;;;;;;6.28;4.30;;;;;27.60;102285.00;;;;5073213;28;20203;-76
2021/07/21 08:24:28;;;;;;;5.07;3.83;;;;;27.70;102291.00;;;;5077247;28;20218;-75
2021/07/21 08:26:55;;;;;;;4.85;4.03;;;;;27.80;102289.00;;;;5084012;28;20198;-76
2021/07/21 08:29:24;;;;;;;6.43;3.83;;;;;27.90;102289.00;;;;5076420;28;20198;-75
2021/07/21 08:31:51;;;;;;;5.93;3.55;;;;;28.00;102290.00;;;;5075992;28;20202;-75
2021/07/21 08:34:18;;;;;;;5.50;3.58;;;;;28.10;102289.00;;;;5078377;28;20194;-75
2021/07/21 08:36:45;;;;;;;4.00;3.35;;;;;28.30;102280.00;;;;5080813;28;20226;-75
2021/07/21 08:39:12;;;;;;;5.03;3.45;;;;;28.40;102285.00;;;;5077307;28;20532;-75
2021/07/21 08:41:40;;;;;;;9.02;4.43;;;;;28.50;102291.00;;;;5074723;28;20199;-76
2021/07/21 08:44:09;;;;;;;4.50;3.40;;;;;28.60;102291.00;;;;5070048;28;20219;-76
2021/07/21 08:46:40;;;;;;;5.47;3.72;;;;;28.70;102292.00;;;;5080179;28;20194;-76
2021/07/21 08:49:08;;;;;;;6.07;4.03;;;;;28.80;102293.00;;;;5077283;28;20207;-76
2021/07/21 08:51:37;;;;;;;6.50;3.95;;;;;28.90;102298.00;;;;5070670;28;20729;-75
2021/07/21 08:54:04;;;;;;;4.25;3.33;;;;;29.00;102299.00;;;;5070026;28;20195;-75
2021/07/21 08:56:32;;;;;;;4.97;3.28;;;;;29.10;102298.00;;;;5074385;28;20198;-76
2021/07/21 08:58:59;;;;;;;5.18;3.85;;;;;29.20;102290.00;;;;5080489;28;20740;-74
2021/07/21 09:01:27;;;;;;;6.45;3.72;;;;;29.30;102298.00;;;;5080047;28;20194;-73
2021/07/21 09:03:56;;;;;;;4.72;3.55;;;;;29.30;102301.00;;;;5084646;28;20210;-75
2021/07/21 09:06:23;;;;;;;5.00;3.15;;;;;29.40;102305.00;;;;5080437;28;20199;-75
2021/07/21 09:08:50;;;;;;;5.28;4.13;;;;;29.40;102303.00;;;;5069868;28;20202;-74
2021/07/21 09:11:18;;;;;;;6.10;3.92;;;;;29.50;102301.00;;;;5078555;28;20671;-75
2021/07/21 09:13:46;;;;;;;5.75;4.00;;;;;29.60;102299.00;;;;5073728;28;20221;-74
2021/07/21 09:16:13;;;;;;;6.97;3.55;;;;;29.70;102298.00;;;;5082481;28;20218;-74
2021/07/21 09:18:48;;;;;;;4.38;3.55;;;;;29.70;102305.00;;;;5069404;28;20695;-76
2021/07/21 09:21:19;;;;;;;5.47;4.53;;;;;29.80;102306.00;;;;5075323;28;20560;-74
2021/07/21 09:23:48;;;;;;;5.50;3.85;;;;;29.90;102310.00;;;;5075707;28;20205;-74
2021/07/21 09:26:19;;;;;;;6.63;4.22;;;;;30.00;102306.00;;;;5069231;28;20231;-75
2021/07/21 09:28:46;;;;;;;7.30;4.43;;;;;30.10;102299.00;;;;5075485;28;20194;-74
2021/07/21 09:31:16;;;;;;;5.47;3.90;;;;;30.20;102299.00;;;;5076009;28;20198;-74
2021/07/21 09:33:45;;;;;;;5.88;3.85;;;;;30.30;102303.00;;;;5072903;28;20201;-74
2021/07/21 09:36:20;;;;;;;7.47;5.13;;;;;30.30;102304.00;;;;5074893;28;20689;-75
2021/07/21 09:38:51;;;;;;;6.00;4.45;;;;;30.40;102304.00;;;;5075933;28;20202;-75
2021/07/21 09:41:19;;;;;;;4.40;3.70;;;;;30.50;102307.00;;;;5072977;28;20198;-75
2021/07/21 09:43:46;;;;;;;6.95;4.03;;;;;30.60;102310.00;;;;5073024;28;20198;-75
2021/07/21 09:46:14;;;;;;;6.28;3.70;;;;;30.70;102310.00;;;;5081772;28;20226;-75
2021/07/21 09:48:43;;;;;;;5.32;3.42;;;;;30.70;102307.00;;;;5078344;28;20221;-75
2021/07/21 09:51:12;;;;;;;5.20;3.83;;;;;30.80;102303.00;;;;5074851;28;20220;-74
2021/07/21 09:53:46;;;;;;;4.65;3.42;;;;;30.80;102308.00;;;;5078185;28;20198;-74
2021/07/21 09:56:13;;;;;;;5.70;3.20;;;;;30.90;102302.00;;;;5077450;28;20235;-75
2021/07/21 09:58:41;;;;;;;5.03;3.53;;;;;31.00;102298.00;;;;5076511;28;20508;-76
2021/07/21 10:01:08;;;;;;;4.75;3.13;;;;;31.00;102296.00;;;;5075552;28;20194;-76
2021/07/21 10:03:39;;;;;;;5.95;3.65;;;;;31.10;102296.00;;;;5072481;28;20260;-76
2021/07/21 10:06:08;;;;;;;5.47;3.78;;;;;31.20;102299.00;;;;5078712;28;20260;-76
2021/07/21 10:09:24;;;;;;;5.85;4.30;;;;;31.10;102297.00;;;;5083304;28;20656;-76
2021/07/21 10:11:55;;;;;;;6.22;4.05;;;;;31.20;102290.00;;;;5069138;28;20209;-75
2021/07/21 10:14:23;;;;;;;4.85;3.55;;;;;31.30;102294.00;;;;5068064;28;20203;-75
2021/07/21 10:16:52;;;;;;;5.35;3.97;;;;;31.40;102290.00;;;;5073321;28;20210;-76
2021/07/21 10:19:23;;;;;;;5.72;3.47;;;;;31.40;102294.00;;;;5084614;28;20194;-75
2021/07/21 10:21:53;;;;;;;6.10;3.83;;;;;31.50;102283.00;;;;5080404;28;20206;-76
2021/07/21 10:24:22;;;;;;;4.95;3.33;;;;;31.50;102283.00;;;;5085014;28;20202;-76
2021/07/21 10:26:50;;;;;;;7.50;3.70;;;;;31.60;102292.00;;;;5068723;28;20230;-76
2021/07/21 10:29:19;;;;;;;4.85;3.63;;;;;31.60;102286.00;;;;5068749;28;20207;-76
2021/07/21 10:31:47;;;;;;;4.97;3.53;;;;;31.70;102295.00;;;;5078900;28;20202;-76
2021/07/21 10:34:17;;;;;;;4.93;3.60;;;;;31.70;102297.00;;;;5096441;28;20258;-75
2021/07/21 10:36:44;;;;;;;4.22;3.67;;;;;31.70;102297.00;;;;5067921;28;20234;-75
2021/07/21 10:39:13;;;;;;;7.53;3.50;;;;;31.70;102291.00;;;;5074593;28;20209;-75
2021/07/21 10:41:42;;;;;;;5.80;3.72;;;;;31.70;102295.00;;;;5076962;28;20194;-75
2021/07/21 10:44:11;;;;;;;5.93;4.30;;;;;31.80;102286.00;;;;5082240;28;20217;-74
2021/07/21 10:46:41;;;;;;;6.70;3.90;;;;;31.80;102285.00;;;;5084746;28;20691;-75
2021/07/21 10:49:20;;;;;;;4.68;3.53;;;;;31.80;102287.00;;;;5096683;28;20205;-75
2021/07/21 10:52:14;;;;;;;6.15;4.03;;;;;31.90;102290.00;;;;5076064;28;20617;-75
2021/07/21 10:54:52;;;;;;;5.65;3.83;;;;;31.90;102286.00;;;;5067668;28;20199;-75
2021/07/21 11:00:12;;;;;;;7.20;3.90;;;;;31.90;102289.00;;;;5085801;28;20695;-75
2021/07/21 11:02:42;;;;;;;5.45;3.95;;;;;31.90;102284.00;;;;5080928;28;20206;-75
2021/07/21 11:05:31;;;;;;;5.28;4.10;;;;;31.70;102289.00;;;;5075036;28;20236;-76
2021/07/21 11:07:59;;;;;;;5.88;3.60;;;;;31.80;102285.00;;;;5074750;28;20202;-75
2021/07/21 11:10:34;;;;;;;8.85;4.15;;;;;31.60;102287.00;;;;5082782;28;20210;-76
2021/07/21 11:13:02;;;;;;;6.55;4.53;;;;;31.70;102288.00;;;;5073206;28;20276;-75
2021/07/21 11:15:35;;;;;;;6.90;3.78;;;;;31.60;102284.00;;;;5078866;28;20207;-75
2021/07/21 11:18:42;;;;;;;5.20;3.83;;;;;31.50;102275.00;;;;5068433;28;20591;-75
2021/07/21 11:21:12;;;;;;;10.85;4.38;;;;;31.70;102281.00;;;;5081122;28;20665;-75
2021/07/21 11:24:02;;;;;;;5.25;3.58;;;;;31.50;102272.00;;;;5068427;28;20296;-75
2021/07/21 11:26:43;;;;;;;6.13;4.00;;;;;31.60;102280.00;;;;5075403;28;20298;-76
2021/07/21 11:29:46;;;;;;;5.55;3.85;;;;;31.50;102278.00;;;;5072931;28;20194;-76
2021/07/21 11:32:29;;;;;;;6.65;4.25;;;;;31.50;102278.00;;;;5079085;28;20186;-77
2021/07/21 11:34:58;;;;;;;5.97;4.07;;;;;31.60;102274.00;;;;5083609;28;20633;-76
2021/07/21 11:37:33;;;;;;;5.13;3.65;;;;;31.50;102275.00;;;;5086068;28;20254;-76
2021/07/21 11:40:13;;;;;;;6.28;4.13;;;;;31.60;102277.00;;;;5083565;28;20202;-76
2021/07/21 11:42:40;;;;;;;7.15;3.60;;;;;31.70;102279.00;;;;5077461;28;20194;-76
2021/07/21 11:45:21;;;;;;;5.60;4.25;;;;;31.60;102273.00;;;;5083645;28;20225;-76
2021/07/21 11:47:56;;;;;;;5.47;3.85;;;;;31.80;102276.00;;;;5082031;28;20702;-75
2021/07/21 11:50:28;;;;;;;6.70;3.90;;;;;31.80;102270.00;;;;5079100;28;20282;-75
2021/07/21 11:52:57;;;;;;;6.03;3.95;;;;;31.80;102273.00;;;;5078912;28;20205;-76
2021/07/21 11:55:26;;;;;;;5.38;3.72;;;;;31.80;102265.00;;;;5078809;28;20202;-76
2021/07/21 11:57:54;;;;;;;5.45;3.95;;;;;31.80;102266.00;;;;5085040;28;20198;-76
2021/07/21 12:00:24;;;;;;;5.90;4.03;;;;;31.70;102266.00;;;;5082235;28;20195;-76
2021/07/21 12:03:00;;;;;;;6.90;3.97;;;;;31.60;102268.00;;;;5085616;28;20569;-75
2021/07/21 12:05:30;;;;;;;5.32;4.22;;;;;31.70;102262.00;;;;5086124;28;20263;-75
2021/07/21 12:08:04;;;;;;;4.85;4.32;;;;;31.60;102254.00;;;;5082495;28;20232;-76
2021/07/21 12:10:32;;;;;;;5.53;3.75;;;;;31.70;102260.00;;;;5075032;28;20277;-76
2021/07/21 12:13:08;;;;;;;4.20;3.80;;;;;31.60;102265.00;;;;5074867;28;20658;-76
2021/07/21 12:15:35;;;;;;;5.60;3.88;;;;;31.70;102259.00;;;;5072481;28;20272;-76
2021/07/21 12:18:09;;;;;;;6.63;4.22;;;;;31.60;102264.00;;;;5076964;28;21039;-77
2021/07/21 12:20:37;;;;;;;5.53;3.85;;;;;31.60;102261.00;;;;5079006;28;20205;-76
2021/07/21 12:23:05;;;;;;;7.32;4.15;;;;;31.50;102262.00;;;;5089319;28;20677;-75
2021/07/21 12:25:33;;;;;;;5.35;3.63;;;;;31.50;102265.00;;;;5085817;28;20222;-76